Time;durP1;ratioP1;P1;durP2;ratioP2;P2;SDS_P1;SDS_P2;PMS_P1;PMS_P2;Temp;Humidity;BMP_temperature;BMP_pressure;BME280_temperature;BME280_humidity;BME280_pressure;Samples;Min_cycle;Max_cycle;Signal;HPM_P1;HPM_P2
2023/07/17 00:00:40;;;;;;;1.95;1.30;;;15.00;99.90;;;;;;5060588;28;20056;-82
2023/07/17 00:03:12;;;;;;;;;;;15.00;99.90;;;;;;5038776;28;20049;-82
2023/07/17 00:05:40;;;;;;;1.67;1.02;;;15.00;99.90;;;;;;5024386;28;19974;-81
2023/07/17 00:08:09;;;;;;;1.60;1.10;;;15.00;99.90;;;;;;5009746;28;20457;-82
2023/07/17 00:10:38;;;;;;;3.53;1.45;;;15.00;99.90;;;;;;5013732;28;20052;-81
2023/07/17 00:13:05;;;;;;;1.90;1.23;;;14.90;99.90;;;;;;5015799;28;20044;-81
2023/07/17 00:15:32;;;;;;;2.17;1.50;;;15.00;99.90;;;;;;5028543;28;20059;-82
2023/07/17 00:17:59;;;;;;;2.03;1.33;;;14.90;99.90;;;;;;5047857;28;20053;-80
2023/07/17 00:20:26;;;;;;;1.60;1.13;;;14.80;99.90;;;;;;5012283;28;20048;-81
2023/07/17 00:22:53;;;;;;;3.45;1.20;;;14.80;99.90;;;;;;5027530;28;20557;-81
2023/07/17 00:25:20;;;;;;;1.67;1.15;;;14.80;99.90;;;;;;5028622;28;20492;-81
2023/07/17 00:27:47;;;;;;;2.28;1.30;;;14.80;99.90;;;;;;5015529;28;20056;-82
2023/07/17 00:30:14;;;;;;;1.23;0.95;;;14.70;99.90;;;;;;5017174;28;20545;-81
2023/07/17 00:32:41;;;;;;;2.85;1.42;;;14.70;99.90;;;;;;5030802;28;20071;-81
2023/07/17 00:35:08;;;;;;;1.35;1.00;;;14.70;99.90;;;;;;5030743;28;20048;-81
2023/07/17 00:37:35;;;;;;;1.98;1.30;;;14.70;99.90;;;;;;5033066;28;20668;-81
2023/07/17 00:40:04;;;;;;;1.65;1.00;;;14.70;99.90;;;;;;5020277;28;20049;-81
2023/07/17 00:42:31;;;;;;;2.47;1.20;;;14.70;99.90;;;;;;5016239;28;20059;-81
2023/07/17 00:44:58;;;;;;;1.98;0.95;;;14.60;99.90;;;;;;5032074;28;20115;-80
2023/07/17 00:47:25;;;;;;;1.75;1.00;;;14.60;99.90;;;;;;5005206;28;20048;-81
2023/07/17 00:49:52;;;;;;;1.27;1.00;;;14.60;99.90;;;;;;5013183;28;20049;-80
2023/07/17 00:52:19;;;;;;;2.03;1.10;;;14.60;99.90;;;;;;4997217;28;20058;-81
2023/07/17 00:54:46;;;;;;;1.50;1.10;;;14.50;99.90;;;;;;5001782;28;20068;-81
2023/07/17 00:57:14;;;;;;;2.92;1.15;;;14.50;99.90;;;;;;5003210;28;20048;-80
2023/07/17 00:59:41;;;;;;;1.85;1.20;;;14.50;99.90;;;;;;4986648;28;20050;-80
2023/07/17 01:02:08;;;;;;;1.88;1.30;;;14.50;99.90;;;;;;4990932;28;20053;-81
2023/07/17 01:04:38;;;;;;;1.48;1.00;;;14.50;99.90;;;;;;4996439;28;20126;-81
2023/07/17 01:07:05;;;;;;;2.08;1.38;;;14.40;99.90;;;;;;5007322;28;20053;-81
2023/07/17 01:09:32;;;;;;;2.17;1.17;;;14.40;99.90;;;;;;4986547;28;20054;-80
2023/07/17 01:11:59;;;;;;;1.83;1.25;;;14.40;99.90;;;;;;4997102;28;20049;-81
2023/07/17 01:14:26;;;;;;;2.03;1.00;;;14.40;99.90;;;;;;5006152;28;20068;-82
2023/07/17 01:16:53;;;;;;;1.95;1.27;;;14.30;99.90;;;;;;5014980;28;20148;-82
2023/07/17 01:19:20;;;;;;;1.38;0.75;;;14.30;99.90;;;;;;4989401;28;20123;-81
2023/07/17 01:21:55;;;;;;;2.13;1.02;;;14.30;99.90;;;;;;5022446;28;20076;-82
2023/07/17 01:24:22;;;;;;;1.65;1.10;;;14.30;99.90;;;;;;5007598;28;20064;-81
2023/07/17 01:26:50;;;;;;;2.42;1.20;;;14.30;99.90;;;;;;5018194;28;20131;-82
2023/07/17 01:29:17;;;;;;;1.85;0.93;;;14.30;99.90;;;;;;5001434;28;20053;-81
2023/07/17 01:31:44;;;;;;;1.60;0.88;;;14.30;99.90;;;;;;4999106;28;20088;-81
2023/07/17 01:34:11;;;;;;;0.88;0.68;;;14.20;99.90;;;;;;4984572;28;20049;-82
2023/07/17 01:36:38;;;;;;;1.42;0.70;;;14.20;99.90;;;;;;4991670;28;20053;-82
2023/07/17 01:39:05;;;;;;;1.15;0.82;;;14.20;99.90;;;;;;4982382;28;20041;-82
2023/07/17 01:41:32;;;;;;;1.38;0.77;;;14.20;99.90;;;;;;5005936;28;20505;-81
2023/07/17 01:43:59;;;;;;;2.20;1.05;;;14.20;99.90;;;;;;4994668;28;20095;-81
2023/07/17 01:46:26;;;;;;;1.67;0.90;;;14.10;99.90;;;;;;5004419;28;20076;-80
2023/07/17 01:48:55;;;;;;;2.92;0.93;;;14.10;99.90;;;;;;4990871;28;20050;-81
2023/07/17 01:51:21;;;;;;;1.98;1.00;;;14.10;99.90;;;;;;5006415;28;20099;-82
2023/07/17 01:53:48;;;;;;;1.58;0.80;;;14.10;99.90;;;;;;5013214;28;20107;-83
2023/07/17 01:56:15;;;;;;;1.80;0.93;;;14.10;99.90;;;;;;5006523;28;20141;-82
2023/07/17 01:58:42;;;;;;;2.33;0.88;;;14.00;99.90;;;;;;5007401;28;20046;-82
2023/07/17 02:01:09;;;;;;;2.20;0.90;;;14.00;99.90;;;;;;4996513;28;20544;-82
2023/07/17 02:03:36;;;;;;;1.40;0.82;;;14.00;99.90;;;;;;5015463;28;20081;-81
2023/07/17 02:06:04;;;;;;;1.98;1.15;;;14.00;99.90;;;;;;4992060;28;20050;-82
2023/07/17 02:08:31;;;;;;;2.15;1.40;;;14.00;99.90;;;;;;5017698;28;20456;-81
2023/07/17 02:10:58;;;;;;;1.15;0.75;;;14.00;99.90;;;;;;4984469;28;20058;-82
2023/07/17 02:13:25;;;;;;;1.50;1.08;;;14.00;99.90;;;;;;4996315;28;20056;-81
2023/07/17 02:15:52;;;;;;;1.27;1.00;;;14.00;99.90;;;;;;4982172;28;20053;-82
2023/07/17 02:18:19;;;;;;;1.75;0.95;;;14.00;99.90;;;;;;5036850;28;20488;-82
2023/07/17 02:20:49;;;;;;;1.73;1.00;;;14.00;99.90;;;;;;4994224;28;20052;-80
2023/07/17 02:23:16;;;;;;;1.58;0.88;;;13.90;99.90;;;;;;4983431;28;20053;-82
2023/07/17 02:25:43;;;;;;;1.42;0.70;;;13.90;99.90;;;;;;5004855;28;20042;-81
2023/07/17 02:28:10;;;;;;;2.25;0.88;;;13.90;99.90;;;;;;4995341;28;20068;-82
2023/07/17 02:30:37;;;;;;;2.28;1.25;;;13.90;99.90;;;;;;5010649;28;20063;-80
2023/07/17 02:33:05;;;;;;;1.27;0.80;;;13.90;99.90;;;;;;5003020;28;20049;-81
2023/07/17 02:35:32;;;;;;;1.52;0.98;;;13.90;99.90;;;;;;5004755;28;20056;-81
2023/07/17 02:37:59;;;;;;;1.15;0.70;;;13.90;99.90;;;;;;4994055;28;20088;-82
2023/07/17 02:40:27;;;;;;;0.90;0.65;;;13.90;99.90;;;;;;4988846;28;20053;-82
2023/07/17 02:42:54;;;;;;;0.88;0.70;;;13.90;99.90;;;;;;4977385;28;20081;-82
2023/07/17 02:45:21;;;;;;;2.65;0.90;;;13.90;99.90;;;;;;5009876;28;20092;-81
2023/07/17 02:47:47;;;;;;;1.92;1.20;;;13.90;99.90;;;;;;5004858;28;20148;-82
2023/07/17 02:50:14;;;;;;;1.45;0.70;;;13.90;99.90;;;;;;4996808;28;20107;-83
2023/07/17 02:52:41;;;;;;;2.20;1.02;;;13.90;99.90;;;;;;4998430;28;20073;-81
2023/07/17 02:55:09;;;;;;;1.98;0.80;;;13.90;99.90;;;;;;5008872;28;20057;-81
2023/07/17 02:57:35;;;;;;;1.75;0.70;;;13.90;99.90;;;;;;5022648;28;20132;-81
2023/07/17 03:00:12;;;;;;;1.13;0.80;;;13.90;99.90;;;;;;5011104;28;20041;-82
2023/07/17 03:02:41;;;;;;;1.38;0.70;;;13.90;99.90;;;;;;4996611;28;20122;-81
2023/07/17 03:05:08;;;;;;;1.50;0.75;;;13.90;99.90;;;;;;5010513;28;20103;-82
2023/07/17 03:07:39;;;;;;;1.63;0.80;;;13.90;99.90;;;;;;4997063;28;20053;-82
2023/07/17 03:10:07;;;;;;;1.25;0.73;;;13.90;99.90;;;;;;4995414;28;20068;-81
2023/07/17 03:12:34;;;;;;;1.08;0.80;;;13.90;99.90;;;;;;5026533;28;20076;-82
2023/07/17 03:15:01;;;;;;;1.40;0.90;;;13.90;99.90;;;;;;4999202;28;20044;-82
2023/07/17 03:17:27;;;;;;;1.25;0.80;;;13.90;99.90;;;;;;5011525;28;20053;-81
2023/07/17 03:19:54;;;;;;;1.33;0.90;;;13.90;99.90;;;;;;5010983;28;20037;-80
2023/07/17 03:22:21;;;;;;;1.80;0.73;;;13.80;99.90;;;;;;5010945;28;20055;-81
2023/07/17 03:24:49;;;;;;;1.10;0.80;;;13.80;99.90;;;;;;5000312;28;20049;-81
2023/07/17 03:27:16;;;;;;;1.33;0.70;;;13.80;99.90;;;;;;5013698;28;20044;-81
2023/07/17 03:29:45;;;;;;;1.25;0.80;;;13.90;99.90;;;;;;5010206;28;20488;-81
2023/07/17 03:32:12;;;;;;;0.60;0.60;;;13.80;99.90;;;;;;4994233;28;20157;-81
2023/07/17 03:34:39;;;;;;;1.52;0.77;;;13.90;99.90;;;;;;5006814;28;20049;-81
2023/07/17 03:37:06;;;;;;;2.50;0.93;;;13.90;99.90;;;;;;5012508;28;20052;-81
2023/07/17 03:39:36;;;;;;;2.08;1.20;;;13.90;99.90;;;;;;5011349;28;20048;-82
2023/07/17 03:42:06;;;;;;;1.17;0.70;;;13.80;99.90;;;;;;4994310;28;20747;-81
2023/07/17 03:44:33;;;;;;;1.00;0.75;;;13.90;99.90;;;;;;5013432;28;20059;-81
2023/07/17 03:47:00;;;;;;;0.85;0.65;;;13.90;99.90;;;;;;5026411;28;20052;-81
2023/07/17 03:49:27;;;;;;;2.58;0.82;;;13.80;99.90;;;;;;5010660;28;20176;-81
2023/07/17 03:51:54;;;;;;;1.15;0.73;;;13.90;99.90;;;;;;4991478;28;20100;-81
2023/07/17 03:54:21;;;;;;;1.67;1.00;;;13.90;99.90;;;;;;4994600;28;20131;-81
2023/07/17 03:56:48;;;;;;;1.85;1.10;;;13.90;99.90;;;;;;5044743;28;20053;-81
2023/07/17 03:59:15;;;;;;;1.17;0.80;;;13.90;99.90;;;;;;5028092;28;20390;-81
2023/07/17 04:01:42;;;;;;;1.23;0.70;;;13.90;99.90;;;;;;4993459;28;20106;-81
2023/07/17 04:04:08;;;;;;;1.63;1.00;;;13.90;99.90;;;;;;5013180;28;20564;-82
2023/07/17 04:06:35;;;;;;;0.63;0.63;;;13.90;99.90;;;;;;5043927;28;20053;-80
2023/07/17 04:09:02;;;;;;;1.27;0.88;;;13.90;99.90;;;;;;4994957;28;20049;-81
2023/07/17 04:11:30;;;;;;;1.52;0.93;;;13.90;99.90;;;;;;4998856;28;20037;-81
2023/07/17 04:13:57;;;;;;;1.98;1.05;;;13.90;99.90;;;;;;5011253;28;20056;-81
2023/07/17 04:16:27;;;;;;;2.15;1.00;;;13.90;99.90;;;;;;5010283;28;20053;-81
2023/07/17 04:18:54;;;;;;;1.40;0.98;;;13.90;99.90;;;;;;5012177;28;20632;-81
2023/07/17 04:21:21;;;;;;;2.28;1.20;;;13.90;99.90;;;;;;5011757;28;20072;-81
2023/07/17 04:23:50;;;;;;;2.50;1.30;;;14.00;99.90;;;;;;4998165;28;20141;-81
2023/07/17 04:26:18;;;;;;;1.77;1.20;;;14.00;99.90;;;;;;5035238;28;20068;-81
2023/07/17 04:28:45;;;;;;;1.35;0.95;;;14.00;99.90;;;;;;5027852;28;20041;-81
2023/07/17 04:31:12;;;;;;;1.73;1.00;;;14.00;99.90;;;;;;5011212;28;20064;-81
2023/07/17 04:33:39;;;;;;;2.08;1.20;;;14.00;99.90;;;;;;5027728;28;20507;-81
2023/07/17 04:36:09;;;;;;;2.47;1.20;;;14.10;99.90;;;;;;5011389;28;20060;-82
2023/07/17 04:38:36;;;;;;;1.40;0.88;;;14.10;99.90;;;;;;5028335;28;20069;-80
2023/07/17 04:41:05;;;;;;;1.88;1.20;;;14.10;99.90;;;;;;5011836;28;20056;-81
2023/07/17 04:43:31;;;;;;;2.30;1.20;;;14.10;99.90;;;;;;4994866;28;20045;-81
2023/07/17 04:45:58;;;;;;;1.13;0.77;;;14.10;99.90;;;;;;5007199;28;20049;-82
2023/07/17 04:48:25;;;;;;;3.00;1.33;;;14.20;99.90;;;;;;5019645;28;20638;-81
2023/07/17 04:50:53;;;;;;;2.22;1.08;;;14.20;99.90;;;;;;5006979;28;20056;-81
2023/07/17 04:53:20;;;;;;;2.08;1.15;;;14.20;99.90;;;;;;5009743;28;20622;-82
2023/07/17 04:55:48;;;;;;;2.20;1.20;;;14.30;99.90;;;;;;5010884;28;20225;-81
2023/07/17 04:58:15;;;;;;;1.08;0.80;;;14.30;99.90;;;;;;5021580;28;20413;-81
2023/07/17 05:00:45;;;;;;;1.92;1.10;;;14.30;99.90;;;;;;4991316;28;20188;-81
2023/07/17 05:03:13;;;;;;;2.72;1.50;;;14.30;1.00;;;;;;4987120;28;20080;-81
2023/07/17 05:05:41;;;;;;;1.70;1.13;;;14.40;1.00;;;;;;5008410;28;20167;-80
2023/07/17 05:08:07;;;;;;;1.85;1.25;;;14.30;1.00;;;;;;5022609;28;20527;-80
2023/07/17 05:10:35;;;;;;;2.33;1.08;;;14.30;1.00;;;;;;5008771;28;20340;-80
2023/07/17 05:13:02;;;;;;;1.58;1.20;;;14.30;1.00;;;;;;5025291;28;20080;-81
2023/07/17 05:15:30;;;;;;;1.42;1.15;;;14.40;1.00;;;;;;5038036;28;20107;-81
2023/07/17 05:17:57;;;;;;;1.40;1.10;;;14.40;1.00;;;;;;5007368;28;20555;-81
2023/07/17 05:20:24;;;;;;;2.55;1.30;;;14.40;1.00;;;;;;5032424;28;20484;-81
2023/07/17 05:22:52;;;;;;;2.67;1.30;;;14.50;1.00;;;;;;5006396;28;20065;-81
2023/07/17 05:25:19;;;;;;;1.58;1.15;;;14.50;1.00;;;;;;5006275;28;20653;-82
2023/07/17 05:27:46;;;;;;;2.50;1.48;;;14.50;1.00;;;;;;4990072;28;20689;-82
2023/07/17 05:30:14;;;;;;;1.65;1.20;;;14.60;1.00;;;;;;5007870;28;20095;-81
2023/07/17 05:32:41;;;;;;;1.38;1.17;;;14.60;99.90;;;;;;5020494;28;20049;-81
2023/07/17 05:35:08;;;;;;;2.08;1.30;;;14.70;99.90;;;;;;5017426;28;20731;-82
2023/07/17 05:37:35;;;;;;;2.08;1.30;;;14.70;99.90;;;;;;5020190;28;20057;-82
2023/07/17 05:40:03;;;;;;;1.80;1.38;;;14.80;99.90;;;;;;4990831;28;20045;-82
2023/07/17 05:42:29;;;;;;;1.73;1.13;;;14.70;99.90;;;;;;5005671;28;20393;-82
2023/07/17 05:44:57;;;;;;;1.70;1.17;;;14.80;99.90;;;;;;4981423;28;20612;-82
2023/07/17 05:47:24;;;;;;;2.10;1.13;;;14.80;99.90;;;;;;5000196;28;20052;-83
2023/07/17 05:49:51;;;;;;;2.17;1.30;;;14.90;99.90;;;;;;5011371;28;20149;-82
2023/07/17 05:52:18;;;;;;;3.22;1.20;;;14.90;99.90;;;;;;5034358;28;20077;-82
2023/07/17 05:54:45;;;;;;;2.72;1.52;;;14.90;99.90;;;;;;5009062;28;20073;-81
2023/07/17 05:57:12;;;;;;;2.63;1.83;;;15.00;99.90;;;;;;4994941;28;20924;-82
2023/07/17 05:59:39;;;;;;;2.00;1.52;;;15.00;99.90;;;;;;5000753;28;20348;-81
2023/07/17 06:02:06;;;;;;;2.35;1.30;;;15.10;99.90;;;;;;4987830;28;20068;-81
2023/07/17 06:04:33;;;;;;;2.13;1.42;;;15.10;99.90;;;;;;5012744;28;20045;-81
2023/07/17 06:07:00;;;;;;;2.55;1.33;;;15.20;99.90;;;;;;5018209;28;20463;-81
2023/07/17 06:09:27;;;;;;;1.90;1.50;;;15.30;99.90;;;;;;4990737;28;20155;-82
2023/07/17 06:11:54;;;;;;;2.15;1.40;;;15.30;99.90;;;;;;4990597;28;20051;-81
2023/07/17 06:14:21;;;;;;;1.95;1.48;;;15.30;99.90;;;;;;5000792;28;20461;-82
2023/07/17 06:16:47;;;;;;;2.03;1.45;;;15.40;99.90;;;;;;5012507;28;20045;-82
2023/07/17 06:19:14;;;;;;;3.05;1.88;;;15.40;99.90;;;;;;5002601;28;20488;-81
2023/07/17 06:21:41;;;;;;;2.40;1.60;;;15.50;99.90;;;;;;4988549;28;20053;-81
2023/07/17 06:24:11;;;;;;;2.63;1.67;;;15.50;99.90;;;;;;5009277;28;20038;-81
2023/07/17 06:26:38;;;;;;;2.13;1.58;;;15.60;99.90;;;;;;4993731;28;20058;-81
2023/07/17 06:29:05;;;;;;;2.72;1.58;;;15.60;52.50;;;;;;5008249;28;20068;-81
2023/07/17 06:31:32;;;;;;;2.33;1.45;;;15.70;1.00;;;;;;5000956;28;20063;-81
2023/07/17 06:33:59;;;;;;;2.88;1.50;;;15.80;2.80;;;;;;5011214;28;20488;-81
2023/07/17 06:36:26;;;;;;;3.30;1.70;;;15.80;1.00;;;;;;5014981;28;20041;-81
2023/07/17 06:38:53;;;;;;;2.85;1.52;;;15.80;1.00;;;;;;5025504;28;20064;-81
2023/07/17 06:41:20;;;;;;;2.67;1.67;;;16.00;1.00;;;;;;5009855;28;20052;-82
2023/07/17 06:43:47;;;;;;;2.95;1.30;;;16.00;99.90;;;;;;4986444;28;20053;-81
2023/07/17 06:46:16;;;;;;;3.03;1.63;;;16.00;99.90;;;;;;4986588;28;20094;-81
2023/07/17 06:48:43;;;;;;;2.83;1.40;;;16.00;99.90;;;;;;4987252;28;20095;-81
2023/07/17 06:51:10;;;;;;;2.10;1.20;;;16.00;99.90;;;;;;5003876;28;20045;-81
2023/07/17 06:53:37;;;;;;;1.98;1.25;;;16.10;99.90;;;;;;5025175;28;20401;-81
2023/07/17 06:56:04;;;;;;;2.15;1.58;;;16.10;99.90;;;;;;4998037;28;20057;-81
2023/07/17 06:58:31;;;;;;;1.95;1.30;;;16.20;99.90;;;;;;4994670;28;20546;-80
2023/07/17 07:00:58;;;;;;;2.40;1.50;;;16.30;45.80;;;;;;5019567;28;20068;-81
2023/07/17 07:03:26;;;;;;;2.50;1.50;;;16.50;99.90;;;;;;4990974;28;20057;-80
2023/07/17 07:05:55;;;;;;;2.45;1.50;;;16.60;99.90;;;;;;5022482;28;20059;-81
2023/07/17 07:08:22;;;;;;;2.25;1.38;;;16.80;83.90;;;;;;5004419;28;20068;-82
2023/07/17 07:10:51;;;;;;;2.33;1.65;;;16.90;1.00;;;;;;5008482;28;20127;-85
2023/07/17 07:13:19;;;;;;;2.30;1.40;;;17.10;1.00;;;;;;5004074;28;20092;-85
2023/07/17 07:15:46;;;;;;;2.08;1.35;;;17.20;99.90;;;;;;5009839;28;20056;-85
2023/07/17 07:18:13;;;;;;;2.35;1.60;;;17.30;99.90;;;;;;5023026;28;20122;-84
2023/07/17 07:20:40;;;;;;;1.83;1.30;;;17.30;99.90;;;;;;5028993;28;20091;-84
2023/07/17 07:23:07;;;;;;;2.67;1.95;;;17.50;1.00;;;;;;5024111;28;20052;-85
2023/07/17 07:25:34;;;;;;;2.38;1.58;;;17.60;1.00;;;;;;5008699;28;20037;-85
2023/07/17 07:28:01;;;;;;;2.00;1.40;;;17.80;99.90;;;;;;5007342;28;20068;-84
2023/07/17 07:30:28;;;;;;;2.58;1.52;;;18.00;60.70;;;;;;4997498;28;20103;-81
2023/07/17 07:32:55;;;;;;;2.03;1.48;;;18.20;1.00;;;;;;4991326;28;20396;-81
2023/07/17 07:35:22;;;;;;;1.67;1.13;;;18.40;99.90;;;;;;4991737;28;20083;-82
2023/07/17 07:37:49;;;;;;;3.60;1.75;;;18.20;1.00;;;;;;4990468;28;20057;-82
2023/07/17 07:40:16;;;;;;;1.55;1.00;;;18.20;99.90;;;;;;4991993;28;20046;-81
2023/07/17 07:42:43;;;;;;;2.45;1.42;;;18.20;99.90;;;;;;5020054;28;20056;-83
2023/07/17 07:45:10;;;;;;;1.95;1.20;;;18.20;99.90;;;;;;5012583;28;20115;-83
2023/07/17 07:47:38;;;;;;;2.13;1.20;;;18.20;99.90;;;;;;4989824;28;20579;-82
2023/07/17 07:50:06;;;;;;;1.80;1.23;;;18.20;85.60;;;;;;5012082;28;20958;-82
2023/07/17 07:52:33;;;;;;;2.28;1.10;;;18.20;67.50;;;;;;4975672;28;20051;-82
2023/07/17 07:55:00;;;;;;;1.90;1.10;;;18.40;69.20;;;;;;4998697;28;20124;-82
2023/07/17 07:57:27;;;;;;;1.52;1.10;;;18.50;77.40;;;;;;5007183;28;20050;-82
2023/07/17 07:59:54;;;;;;;1.63;1.17;;;18.50;55.90;;;;;;4995491;28;20127;-81
2023/07/17 08:02:21;;;;;;;2.47;1.20;;;18.60;62.10;;;;;;4993487;28;20071;-81
2023/07/17 08:04:48;;;;;;;1.95;1.25;;;18.70;30.00;;;;;;5012939;28;20048;-81
2023/07/17 08:07:15;;;;;;;2.28;1.40;;;18.80;8.90;;;;;;5002289;28;20049;-81
2023/07/17 08:09:41;;;;;;;2.35;1.20;;;18.70;6.40;;;;;;4991364;28;20090;-82
2023/07/17 08:12:08;;;;;;;1.98;1.10;;;18.60;1.00;;;;;;5017550;28;20045;-82
2023/07/17 08:14:36;;;;;;;3.30;1.10;;;18.60;1.00;;;;;;5004809;28;20088;-82
2023/07/17 08:17:03;;;;;;;1.23;0.93;;;18.50;1.00;;;;;;5014977;28;20503;-82
2023/07/17 08:19:30;;;;;;;1.50;1.08;;;18.60;1.00;;;;;;4998038;28;20126;-82
2023/07/17 08:21:57;;;;;;;1.65;1.10;;;18.70;1.00;;;;;;4996276;28;20225;-82
2023/07/17 08:24:24;;;;;;;1.27;1.00;;;18.80;1.00;;;;;;4983655;28;20056;-82
2023/07/17 08:26:51;;;;;;;1.45;1.00;;;18.80;1.00;;;;;;4990677;28;20445;-82
2023/07/17 08:29:18;;;;;;;1.90;0.90;;;18.80;1.00;;;;;;4994855;28;20064;-82
2023/07/17 08:31:46;;;;;;;2.63;1.33;;;18.90;1.00;;;;;;5010626;28;20053;-82
2023/07/17 08:34:13;;;;;;;1.42;0.82;;;18.90;1.00;;;;;;4990529;28;20042;-82
2023/07/17 08:36:40;;;;;;;2.00;1.02;;;19.00;1.00;;;;;;4989615;28;20057;-82
2023/07/17 08:39:06;;;;;;;1.85;1.20;;;19.20;1.00;;;;;;5024642;28;20076;-81
2023/07/17 08:41:33;;;;;;;2.63;1.00;;;19.40;1.00;;;;;;5026089;28;20049;-82
2023/07/17 08:44:00;;;;;;;0.93;0.80;;;19.40;1.00;;;;;;5024357;28;20052;-81
2023/07/17 08:46:28;;;;;;;1.70;0.90;;;19.50;1.00;;;;;;4997238;28;20519;-81
2023/07/17 08:48:54;;;;;;;1.65;1.00;;;19.70;1.00;;;;;;4991661;28;20051;-81
2023/07/17 08:51:21;;;;;;;2.05;1.15;;;19.90;1.00;;;;;;5004577;28;20392;-81
2023/07/17 08:53:48;;;;;;;1.13;0.65;;;19.90;1.00;;;;;;5021884;28;20087;-82
2023/07/17 08:56:15;;;;;;;1.33;0.90;;;19.90;1.00;;;;;;5000044;28;20053;-82
2023/07/17 08:58:42;;;;;;;1.25;0.80;;;20.10;1.00;;;;;;4985556;28;20053;-82
2023/07/17 09:01:09;;;;;;;1.40;0.95;;;20.20;1.00;;;;;;4997562;28;20278;-82
2023/07/17 09:03:36;;;;;;;1.63;0.90;;;20.00;1.00;;;;;;5038325;28;20056;-82
2023/07/17 09:06:04;;;;;;;1.35;0.73;;;20.00;1.00;;;;;;5007516;28;20053;-82
2023/07/17 09:08:31;;;;;;;0.90;0.68;;;20.10;1.00;;;;;;4991232;28;20069;-82
2023/07/17 09:11:05;;;;;;;1.23;0.82;;;20.10;1.00;;;;;;4991134;28;20761;-83
2023/07/17 09:13:58;;;;;;;1.40;0.93;;;20.10;1.00;;;;;;4993807;28;20080;-82
2023/07/17 09:16:25;;;;;;;;;;;20.20;1.00;;;;;;5007995;28;20412;-82
2023/07/17 09:18:53;;;;;;;1.38;0.70;;;20.30;1.00;;;;;;5002370;28;19925;-82
2023/07/17 09:21:22;;;;;;;1.00;0.70;;;20.50;1.00;;;;;;4987977;28;20049;-82
2023/07/17 09:23:53;;;;;;;1.30;0.70;;;20.50;1.00;;;;;;4988059;28;20057;-82
2023/07/17 09:26:24;;;;;;;1.23;0.70;;;20.20;1.00;;;;;;5000266;28;20657;-82
2023/07/17 09:28:53;;;;;;;1.80;0.95;;;19.90;1.00;;;;;;4997206;28;20040;-83
2023/07/17 09:31:27;;;;;;;2.38;0.90;;;19.40;1.00;;;;;;4985409;28;20583;-82
2023/07/17 09:34:04;;;;;;;0.95;0.55;;;19.20;1.00;;;;;;5001813;28;20056;-82
2023/07/17 09:36:30;;;;;;;1.83;0.93;;;19.10;1.00;;;;;;4985506;28;20055;-81
2023/07/17 09:38:58;;;;;;;1.55;0.85;;;19.10;1.00;;;;;;5023127;28;20049;-82
2023/07/17 09:41:26;;;;;;;1.35;0.70;;;19.20;1.00;;;;;;4993307;28;20053;-82
2023/07/17 09:44:03;;;;;;;2.00;0.70;;;19.50;1.00;;;;;;5003795;28;20066;-81
2023/07/17 09:46:39;;;;;;;1.42;0.70;;;19.60;1.00;;;;;;5018363;28;20554;-82
2023/07/17 09:49:07;;;;;;;2.15;0.77;;;19.60;1.00;;;;;;5007744;28;20053;-83
2023/07/17 09:51:34;;;;;;;1.05;0.50;;;19.50;99.90;;;;;;4990766;28;20041;-83
2023/07/17 09:54:05;;;;;;;0.85;0.63;;;19.20;1.00;;;;;;4987113;28;20076;-82
2023/07/17 09:56:32;;;;;;;0.93;0.60;;;18.90;1.00;;;;;;4989156;28;20159;-83
2023/07/17 09:59:05;;;;;;;1.25;0.68;;;18.70;99.90;;;;;;4999453;28;20057;-82
2023/07/17 10:01:32;;;;;;;1.55;0.88;;;18.70;99.90;;;;;;5025562;28;20049;-83
2023/07/17 10:03:59;;;;;;;2.35;1.15;;;18.80;1.00;;;;;;4993110;28;20135;-82
2023/07/17 10:06:26;;;;;;;2.22;0.70;;;18.80;99.90;;;;;;5004404;28;20096;-82
2023/07/17 10:08:53;;;;;;;1.55;1.00;;;19.00;99.90;;;;;;5003036;28;20115;-81
2023/07/17 10:11:21;;;;;;;2.00;0.95;;;19.30;17.30;;;;;;4993308;28;20060;-82
2023/07/17 10:13:48;;;;;;;1.05;0.73;;;19.40;1.00;;;;;;5011755;28;20492;-81
2023/07/17 10:16:16;;;;;;;1.05;0.60;;;19.30;1.00;;;;;;4987257;28;20111;-81
2023/07/17 10:18:54;;;;;;;1.38;1.00;;;19.10;1.00;;;;;;5015676;28;20124;-81
2023/07/17 10:21:21;;;;;;;2.47;1.00;;;18.70;13.40;;;;;;4976988;28;20127;-82
2023/07/17 10:23:49;;;;;;;1.25;0.82;;;18.20;1.00;;;;;;4994870;28;20057;-83
2023/07/17 10:26:19;;;;;;;0.80;0.60;;;17.40;99.90;;;;;;4981459;28;20164;-80
2023/07/17 10:28:52;;;;;;;0.57;0.50;;;16.80;99.90;;;;;;4982813;28;20049;-81
2023/07/17 10:31:25;;;;;;;0.70;0.60;;;16.60;1.00;;;;;;4983430;28;20061;-83
2023/07/17 10:33:55;;;;;;;0.90;0.50;;;16.70;1.00;;;;;;5022746;28;20673;-84
2023/07/17 10:36:42;;;;;;;0.40;0.40;;;16.90;12.40;;;;;;5007792;28;20399;-84
2023/07/17 10:39:19;;;;;;;0.80;0.55;;;16.90;3.50;;;;;;5010927;28;20131;-82
2023/07/17 10:41:49;;;;;;;1.10;0.80;;;17.00;19.30;;;;;;5026372;28;20560;-84
2023/07/17 10:44:20;;;;;;;0.57;0.50;;;17.00;1.00;;;;;;5025691;28;20396;-83
2023/07/17 10:46:47;;;;;;;0.82;0.57;;;17.00;99.90;;;;;;5026002;28;20277;-83
2023/07/17 10:49:16;;;;;;;0.60;0.50;;;17.10;99.90;;;;;;5012005;28;20051;-84
2023/07/17 10:51:44;;;;;;;0.85;0.70;;;17.40;1.00;;;;;;4989922;28;20054;-84
2023/07/17 10:54:12;;;;;;;1.40;0.80;;;17.60;1.00;;;;;;5006120;28;20045;-83
2023/07/17 10:56:39;;;;;;;1.13;0.70;;;17.90;99.90;;;;;;5035956;28;20466;-83
2023/07/17 10:59:05;;;;;;;1.20;0.50;;;18.10;99.90;;;;;;4997424;28;20159;-83
2023/07/17 11:01:32;;;;;;;1.08;0.65;;;18.30;1.00;;;;;;4981543;28;20135;-83
2023/07/17 11:03:59;;;;;;;1.48;0.73;;;18.50;1.00;;;;;;5005472;28;20048;-83
2023/07/17 11:06:27;;;;;;;1.13;0.70;;;18.70;99.90;;;;;;4993457;28;20069;-83
2023/07/17 11:08:54;;;;;;;1.23;0.85;;;18.80;99.90;;;;;;5013663;28;20053;-84
2023/07/17 11:11:21;;;;;;;0.80;0.50;;;18.60;99.90;;;;;;4988589;28;20060;-83
2023/07/17 11:13:48;;;;;;;0.82;0.50;;;18.50;99.90;;;;;;4979606;28;20076;-83
2023/07/17 11:16:16;;;;;;;0.50;0.40;;;18.40;20.90;;;;;;5002484;28;20069;-83
2023/07/17 11:18:50;;;;;;;1.08;0.55;;;18.50;99.90;;;;;;4988382;28;20049;-83
2023/07/17 11:21:20;;;;;;;0.65;0.60;;;18.60;99.90;;;;;;5013290;28;20624;-82
2023/07/17 11:23:51;;;;;;;1.38;0.82;;;18.70;99.90;;;;;;5020825;28;20087;-82
2023/07/17 11:26:29;;;;;;;1.13;0.70;;;19.00;99.90;;;;;;4985255;28;20355;-82
2023/07/17 11:28:57;;;;;;;0.85;0.65;;;19.30;92.30;;;;;;5001414;28;20205;-82
2023/07/17 11:31:27;;;;;;;2.25;0.70;;;19.40;99.90;;;;;;5041591;28;20068;-82
2023/07/17 11:34:00;;;;;;;0.75;0.50;;;19.60;1.00;;;;;;5008771;28;20057;-82
2023/07/17 11:36:43;;;;;;;0.73;0.50;;;20.00;80.10;;;;;;5033442;28;20702;-82
2023/07/17 11:39:15;;;;;;;0.88;0.57;;;20.40;1.00;;;;;;5008710;28;20060;-83
2023/07/17 11:41:52;;;;;;;1.67;0.80;;;20.40;1.00;;;;;;4996850;28;20051;-82
2023/07/17 11:44:30;;;;;;;1.23;0.70;;;20.70;1.00;;;;;;4997653;28;20160;-82
2023/07/17 11:47:01;;;;;;;0.80;0.60;;;21.10;1.00;;;;;;4996317;28;20136;-83
2023/07/17 11:49:28;;;;;;;0.98;0.65;;;21.40;1.00;;;;;;4988011;28;20059;-83
2023/07/17 11:51:56;;;;;;;1.10;0.55;;;21.90;1.00;;;;;;4992355;28;20095;-82
2023/07/17 11:54:40;;;;;;;1.25;0.65;;;22.10;1.00;;;;;;4992314;28;20060;-81
2023/07/17 11:57:07;;;;;;;1.05;0.63;;;22.20;1.00;;;;;;4974806;28;20048;-83
2023/07/17 11:59:34;;;;;;;1.17;0.52;;;22.50;1.00;;;;;;5000288;28;20064;-83
2023/07/17 12:02:01;;;;;;;1.02;0.60;;;22.70;1.00;;;;;;5007910;28;20644;-83
2023/07/17 12:04:41;;;;;;;0.50;0.50;;;23.00;1.00;;;;;;5008569;28;20072;-83
2023/07/17 12:07:21;;;;;;;1.75;0.65;;;23.30;1.00;;;;;;5043789;28;20452;-83
2023/07/17 12:09:49;;;;;;;1.33;0.65;;;23.70;1.00;;;;;;5025544;28;20336;-83
2023/07/17 12:12:17;;;;;;;1.10;0.50;;;24.00;1.00;;;;;;5024283;28;20064;-83
2023/07/17 12:14:44;;;;;;;0.65;0.55;;;24.20;1.00;;;;;;5013090;28;20080;-83
2023/07/17 12:17:11;;;;;;;0.65;0.50;;;24.40;1.00;;;;;;4995656;28;20055;-83
2023/07/17 12:19:38;;;;;;;0.70;0.50;;;24.30;1.00;;;;;;4990262;28;20077;-82
2023/07/17 12:22:05;;;;;;;0.82;0.45;;;24.40;1.00;;;;;;4979099;28;20057;-81
2023/07/17 12:24:35;;;;;;;0.57;0.50;;;24.70;1.00;;;;;;5028410;28;20092;-81
2023/07/17 12:27:02;;;;;;;1.00;0.80;;;25.10;1.00;;;;;;5007787;28;20053;-82
2023/07/17 12:29:29;;;;;;;0.95;0.60;;;25.80;1.00;;;;;;5025878;28;20053;-82
2023/07/17 12:31:56;;;;;;;0.88;0.38;;;25.80;1.00;;;;;;5024719;28;20053;-82
2023/07/17 12:34:23;;;;;;;0.90;0.60;;;25.50;1.00;;;;;;5030087;28;20063;-81
2023/07/17 12:36:50;;;;;;;0.55;0.38;;;25.10;1.00;;;;;;5047302;28;20049;-81
2023/07/17 12:39:16;;;;;;;0.65;0.40;;;24.80;1.00;;;;;;5046181;28;20049;-81
2023/07/17 12:41:43;;;;;;;0.68;0.57;;;24.50;1.00;;;;;;5044609;28;20090;-81
2023/07/17 12:44:11;;;;;;;0.77;0.52;;;24.90;1.00;;;;;;5026009;28;20094;-82
2023/07/17 12:46:38;;;;;;;0.75;0.60;;;25.50;1.00;;;;;;5028164;28;20625;-82
2023/07/17 12:49:05;;;;;;;0.90;0.60;;;26.30;1.00;;;;;;5013812;28;20047;-82
2023/07/17 12:51:31;;;;;;;0.55;0.40;;;27.00;1.00;;;;;;5038102;28;20084;-82
2023/07/17 12:53:58;;;;;;;0.70;0.30;;;26.90;1.00;;;;;;5040527;28;20109;-82